Time,TemperatureF,DewpointF,PressureIn,WindDirection,WindDirectionDegrees,WindSpeedMPH,WindSpeedGustMPH,Humidity,HourlyPrecipIn,Conditions,Clouds,dailyrainin,SoftwareType,DateUTC
2013-09-07 00:01:00,50.3,43.0,30.13,SSW,210,0.0,0.0,76,0.00,,CLR,0.00,VWS V14.01,2013-09-07 04:01:00,
2013-09-07 00:11:00,50.2,42.9,30.13,SSW,210,0.0,0.0,76,0.00,,CLR,0.00,VWS V14.01,2013-09-07 04:11:00,
2013-09-07 00:21:00,50.2,42.2,30.13,SSW,210,0.0,0.0,74,0.00,,CLR,0.00,VWS V14.01,2013-09-07 04:21:00,
2013-09-07 00:31:00,50.3,42.3,30.12,SSW,210,0.0,0.0,74,0.00,,CLR,0.00,VWS V14.01,2013-09-07 04:31:00,
2013-09-07 00:40:00,50.7,42.4,30.12,SSW,210,0.0,0.0,73,0.00,,CLR,0.00,VWS V14.01,2013-09-07 04:40:00,
2013-09-07 00:50:00,51.1,43.1,30.12,SSW,210,0.0,0.0,74,0.00,,CLR,0.00,VWS V14.01,2013-09-07 04:50:00,
2013-09-07 01:01:00,51.3,42.6,30.12,SSW,210,0.0,0.0,72,0.00,,CLR,0.00,VWS V14.01,2013-09-07 05:01:00,
2013-09-07 01:11:00,51.6,42.2,30.12,SSW,210,0.0,0.0,70,0.00,,CLR,0.00,VWS V14.01,2013-09-07 05:11:00,
2013-09-07 01:21:00,51.4,44.4,30.12,SSW,210,0.0,0.0,77,0.00,,CLR,0.00,VWS V14.01,2013-09-07 05:21:00,
2013-09-07 01:31:00,51.3,43.7,30.12,SSW,210,0.0,0.0,75,0.00,,CLR,0.00,VWS V14.01,2013-09-07 05:31:00,
2013-09-07 01:41:00,51.6,43.6,30.12,SSW,210,0.0,0.0,74,0.00,,CLR,0.00,VWS V14.01,2013-09-07 05:41:00,
2013-09-07 01:51:00,51.1,43.8,30.11,SSW,210,0.0,0.0,76,0.00,,CLR,0.00,VWS V14.01,2013-09-07 05:51:00,
2013-09-07 02:01:00,50.9,44.0,30.12,SSW,210,0.0,0.0,77,0.00,,CLR,0.00,VWS V14.01,2013-09-07 06:01:00,
2013-09-07 02:11:00,50.5,43.2,30.12,SSW,210,0.0,0.0,76,0.00,,CLR,0.00,VWS V14.01,2013-09-07 06:11:00,
2013-09-07 02:21:00,50.7,43.4,30.11,SSW,210,0.0,0.0,76,0.00,,CLR,0.00,VWS V14.01,2013-09-07 06:21:00,
2013-09-07 02:31:00,50.6,43.7,30.11,SSW,210,0.0,0.0,77,0.00,,CLR,0.00,VWS V14.01,2013-09-07 06:31:00,
2013-09-07 02:41:00,50.4,43.8,30.11,SSW,210,0.0,0.0,78,0.00,,CLR,0.00,VWS V14.01,2013-09-07 06:41:00,
2013-09-07 02:51:00,50.4,44.1,30.11,SSW,210,0.0,0.0,79,0.00,,CLR,0.00,VWS V14.01,2013-09-07 06:51:00,
2013-09-07 03:01:00,50.6,44.7,30.11,SSW,210,0.0,1.1,80,0.00,,CLR,0.00,VWS V14.01,2013-09-07 07:01:00,
2013-09-07 03:11:00,51.0,45.1,30.11,SSW,210,0.0,0.0,80,0.00,,CLR,0.00,VWS V14.01,2013-09-07 07:11:00,
2013-09-07 03:21:00,51.6,46.0,30.11,SW,214,0.0,0.0,81,0.00,,CLR,0.00,VWS V14.01,2013-09-07 07:21:00,
2013-09-07 03:31:00,52.1,46.8,30.11,SW,214,0.0,0.0,82,0.00,,CLR,0.00,VWS V14.01,2013-09-07 07:31:00,
2013-09-07 03:41:00,52.2,46.9,30.11,SW,214,0.0,1.1,82,0.00,,CLR,0.00,VWS V14.01,2013-09-07 07:41:00,
2013-09-07 03:51:00,52.3,47.3,30.11,SW,214,0.0,0.0,83,0.00,,CLR,0.00,VWS V14.01,2013-09-07 07:51:00,
2013-09-07 04:01:00,52.2,47.5,30.11,SW,214,0.0,0.0,84,0.00,,CLR,0.00,VWS V14.01,2013-09-07 08:01:00,
2013-09-07 04:11:00,52.2,47.5,30.11,SW,214,0.0,0.0,84,0.00,,CLR,0.00,VWS V14.01,2013-09-07 08:11:00,
2013-09-07 04:21:00,52.5,47.8,30.10,SW,214,0.0,0.0,84,0.00,,CLR,0.00,VWS V14.01,2013-09-07 08:21:00,
2013-09-07 04:31:00,52.6,47.9,30.10,SW,214,0.0,0.0,84,0.00,,CLR,0.00,VWS V14.01,2013-09-07 08:31:00,
2013-09-07 04:41:00,52.6,47.9,30.10,SW,214,0.0,1.1,84,0.00,,CLR,0.00,VWS V14.01,2013-09-07 08:41:00,
2013-09-07 04:51:00,52.5,48.1,30.10,SW,214,0.0,0.0,85,0.00,,CLR,0.00,VWS V14.01,2013-09-07 08:51:00,
2013-09-07 05:01:00,52.2,47.8,30.10,SW,214,0.0,0.0,85,0.00,,CLR,0.00,VWS V14.01,2013-09-07 09:01:00,
2013-09-07 05:11:00,51.9,47.8,30.10,SW,214,0.0,0.0,86,0.00,,CLR,0.00,VWS V14.01,2013-09-07 09:11:00,
2013-09-07 05:21:00,51.7,48.0,30.10,SW,214,0.0,0.0,87,0.00,,CLR,0.00,VWS V14.01,2013-09-07 09:21:00,
2013-09-07 05:31:00,51.6,47.9,30.10,SW,214,0.0,0.0,87,0.00,,CLR,0.00,VWS V14.01,2013-09-07 09:31:00,
2013-09-07 05:41:00,51.4,48.0,30.10,SW,214,0.0,0.0,88,0.00,,CLR,0.00,VWS V14.01,2013-09-07 09:41:00,
2013-09-07 05:51:00,51.3,47.9,30.10,SW,214,0.0,0.0,88,0.00,,CLR,0.00,VWS V14.01,2013-09-07 09:51:00,
2013-09-07 06:01:00,51.1,47.7,30.10,SW,214,0.0,1.1,88,0.00,,CLR,0.00,VWS V14.01,2013-09-07 10:01:00,
2013-09-07 06:11:00,51.0,47.3,30.10,SW,214,0.0,1.1,87,0.00,,CLR,0.00,VWS V14.01,2013-09-07 10:11:00,
2013-09-07 06:21:00,50.6,47.2,30.09,SW,214,0.0,0.0,88,0.00,,CLR,0.00,VWS V14.01,2013-09-07 10:21:00,
2013-09-07 06:31:00,50.3,47.2,30.09,SW,214,0.0,0.0,89,0.00,,CLR,0.00,VWS V14.01,2013-09-07 10:31:00,
2013-09-07 06:41:00,50.2,47.4,30.09,SW,214,0.0,0.0,90,0.00,,CLR,0.00,VWS V14.01,2013-09-07 10:41:00,
2013-09-07 06:51:00,50.2,47.4,30.09,SW,214,0.0,0.0,90,0.00,,CLR,0.00,VWS V14.01,2013-09-07 10:51:00,
2013-09-07 07:01:00,50.6,47.2,30.09,SW,214,0.0,0.0,88,0.00,,CLR,0.00,VWS V14.01,2013-09-07 11:01:00,
2013-09-07 07:11:00,51.2,47.5,30.09,SW,214,0.0,0.0,87,0.00,,CLR,0.00,VWS V14.01,2013-09-07 11:11:00,
2013-09-07 07:21:00,51.5,47.2,30.09,SW,214,0.0,0.0,85,0.00,,CLR,0.00,VWS V14.01,2013-09-07 11:21:00,
2013-09-07 07:31:00,51.6,47.9,30.09,SW,214,1.1,2.1,87,0.00,,CLR,0.00,VWS V14.01,2013-09-07 11:31:00,
2013-09-07 07:41:00,51.9,47.8,30.08,SW,214,0.0,0.0,86,0.00,,CLR,0.00,VWS V14.01,2013-09-07 11:41:00,
2013-09-07 07:51:00,52.5,48.8,30.09,SW,214,0.0,1.1,87,0.00,,CLR,0.00,VWS V14.01,2013-09-07 11:51:00,
2013-09-07 08:01:00,53.3,48.9,30.09,South,181,0.0,0.0,85,0.00,,CLR,0.00,VWS V14.01,2013-09-07 12:01:00,
2013-09-07 08:11:00,54.6,49.2,30.09,SW,214,0.0,2.1,82,0.00,,CLR,0.00,VWS V14.01,2013-09-07 12:11:00,
2013-09-07 08:21:00,55.8,49.4,30.08,SSW,212,0.0,1.1,79,0.00,,CLR,0.00,VWS V14.01,2013-09-07 12:21:00,
2013-09-07 08:31:00,56.9,49.8,30.08,SW,233,0.0,1.1,77,0.00,,CLR,0.00,VWS V14.01,2013-09-07 12:31:00,
2013-09-07 08:41:00,57.7,49.8,30.09,SW,220,3.2,3.2,75,0.00,,CLR,0.00,VWS V14.01,2013-09-07 12:41:00,
2013-09-07 08:51:00,58.3,49.7,30.08,SE,136,2.1,4.3,73,0.00,,CLR,0.00,VWS V14.01,2013-09-07 12:51:00,
2013-09-07 09:01:00,59.3,49.5,30.08,SE,142,5.4,5.4,70,0.00,,CLR,0.00,VWS V14.01,2013-09-07 13:01:00,
2013-09-07 09:11:00,60.1,49.1,30.08,WSW,241,0.0,3.2,67,0.00,,CLR,0.00,VWS V14.01,2013-09-07 13:11:00,
2013-09-07 09:21:00,60.8,49.8,30.08,SSW,211,0.0,3.2,67,0.00,,CLR,0.00,VWS V14.01,2013-09-07 13:21:00,
2013-09-07 09:31:00,61.2,49.3,30.08,SSW,206,3.2,4.3,65,0.00,,CLR,0.00,VWS V14.01,2013-09-07 13:31:00,
2013-09-07 09:41:00,61.8,49.9,30.09,SW,217,1.1,4.3,65,0.00,,CLR,0.00,VWS V14.01,2013-09-07 13:41:00,
2013-09-07 09:51:00,62.4,49.2,30.07,SSW,196,0.0,1.1,62,0.00,,CLR,0.00,VWS V14.01,2013-09-07 13:51:00,
2013-09-07 10:01:00,63.1,49.5,30.08,SSW,212,4.3,7.5,61,0.00,,CLR,0.00,VWS V14.01,2013-09-07 14:01:00,
2013-09-07 10:11:00,63.4,49.3,30.07,South,190,0.0,3.2,60,0.00,,CLR,0.00,VWS V14.01,2013-09-07 14:11:00,
2013-09-07 10:21:00,64.2,50.9,30.08,SSW,200,3.2,6.4,62,0.00,,CLR,0.00,VWS V14.01,2013-09-07 14:21:00,
2013-09-07 10:31:00,65.0,48.9,30.07,SSW,204,6.4,7.5,56,0.00,,CLR,0.00,VWS V14.01,2013-09-07 14:31:00,
2013-09-07 10:41:00,65.0,47.5,30.07,SSW,197,3.2,4.3,53,0.00,,CLR,0.00,VWS V14.01,2013-09-07 14:41:00,
2013-09-07 10:51:00,66.0,48.4,30.08,SSW,208,3.2,4.3,53,0.00,,CLR,0.00,VWS V14.01,2013-09-07 14:51:00,
2013-09-07 11:01:00,66.4,48.8,30.07,North,352,1.1,2.1,53,0.00,,CLR,0.00,VWS V14.01,2013-09-07 15:01:00,
2013-09-07 11:11:00,67.1,47.3,30.07,SSW,193,8.6,8.6,49,0.00,,SCT250,0.00,VWS V14.01,2013-09-07 15:11:00,
2013-09-07 11:21:00,67.0,48.3,30.06,SW,220,1.1,5.4,51,0.00,,SCT250,0.00,VWS V14.01,2013-09-07 15:21:00,
2013-09-07 11:31:00,68.1,48.8,30.06,SW,234,2.1,5.4,50,0.00,,SCT250,0.00,VWS V14.01,2013-09-07 15:31:00,
2013-09-07 11:41:00,68.4,49.6,30.06,SW,225,3.2,3.2,51,0.00,,SCT250,0.00,VWS V14.01,2013-09-07 15:41:00,
2013-09-07 11:51:00,68.1,48.2,30.05,SW,226,2.1,5.4,49,0.00,,SCT250,0.00,VWS V14.01,2013-09-07 15:51:00,
2013-09-07 12:01:00,68.2,48.9,30.05,West,274,2.1,5.4,50,0.00,,SCT250,0.00,VWS V14.01,2013-09-07 16:01:00,
2013-09-07 12:11:00,68.2,48.3,30.04,South,187,2.1,6.4,49,0.00,,FEW250,0.00,VWS V14.01,2013-09-07 16:11:00,
2013-09-07 12:21:00,68.2,48.9,30.04,West,259,1.1,6.4,50,0.00,,FEW250,0.00,VWS V14.01,2013-09-07 16:21:00,
2013-09-07 12:31:00,68.9,49.5,30.03,West,272,1.1,3.2,50,0.00,,FEW250,0.00,VWS V14.01,2013-09-07 16:31:00,
2013-09-07 12:40:00,69.5,50.6,30.02,SSE,158,3.2,7.5,51,0.00,,FEW250,0.00,VWS V14.01,2013-09-07 16:40:00,
2013-09-07 12:50:00,69.3,50.9,30.02,SSW,209,2.1,5.4,52,0.00,,FEW250,0.00,VWS V14.01,2013-09-07 16:50:00,
2013-09-07 13:00:00,69.2,50.8,30.02,West,262,4.3,6.4,52,0.00,,FEW250,0.00,VWS V14.01,2013-09-07 17:00:00,
2013-09-07 13:11:00,69.7,52.3,30.00,WSW,242,2.1,4.3,54,0.00,,FEW250,0.00,VWS V14.01,2013-09-07 17:11:00,
2013-09-07 13:21:00,69.7,52.3,30.00,SW,226,2.1,3.2,54,0.00,,FEW250,0.00,VWS V14.01,2013-09-07 17:21:00,
2013-09-07 13:31:00,69.8,51.9,30.00,SSE,162,3.2,4.3,53,0.00,,FEW250,0.00,VWS V14.01,2013-09-07 17:31:00,
2013-09-07 13:41:00,69.4,52.0,30.00,SW,236,1.1,6.4,54,0.00,,FEW250,0.00,VWS V14.01,2013-09-07 17:41:00,
2013-09-07 13:51:00,69.7,51.8,30.00,SW,225,2.1,4.3,53,0.00,,FEW250,0.00,VWS V14.01,2013-09-07 17:51:00,
2013-09-07 14:01:00,70.2,52.3,29.99,WSW,242,4.3,7.5,53,0.00,,FEW250,0.00,VWS V14.01,2013-09-07 18:01:00,
2013-09-07 14:11:00,70.7,51.7,29.99,SSW,208,3.2,4.3,51,0.00,,SCT250,0.00,VWS V14.01,2013-09-07 18:11:00,
2013-09-07 14:21:00,71.0,52.5,29.99,SSW,192,3.2,7.5,52,0.00,,SCT250,0.00,VWS V14.01,2013-09-07 18:21:00,
2013-09-07 14:31:00,70.3,51.9,29.99,South,183,5.4,6.4,52,0.00,,SCT250,0.00,VWS V14.01,2013-09-07 18:31:00,
2013-09-07 14:41:00,71.0,53.5,29.98,SW,214,4.3,7.5,54,0.00,,SCT250,0.00,VWS V14.01,2013-09-07 18:41:00,
2013-09-07 14:51:00,70.5,52.0,29.98,SE,140,3.2,4.3,52,0.00,,SCT250,0.00,VWS V14.01,2013-09-07 18:51:00,
2013-09-07 15:01:00,70.8,52.8,29.97,SE,141,1.1,3.2,53,0.00,,SCT250,0.00,VWS V14.01,2013-09-07 19:01:00,
2013-09-07 15:11:00,70.9,51.9,29.98,SE,141,6.4,6.4,51,0.00,,BKN250,0.00,VWS V14.01,2013-09-07 19:11:00,
2013-09-07 15:21:00,70.2,50.2,29.97,NW,326,1.1,6.4,49,0.00,,BKN250,0.00,VWS V14.01,2013-09-07 19:21:00,
2013-09-07 15:31:00,70.5,50.4,29.98,SW,233,4.3,5.4,49,0.00,,BKN250,0.00,VWS V14.01,2013-09-07 19:31:00,
2013-09-07 15:41:00,70.8,49.6,29.97,SW,228,3.2,3.2,47,0.00,,BKN250,0.00,VWS V14.01,2013-09-07 19:41:00,
2013-09-07 15:51:00,70.8,49.6,29.96,SSW,197,2.1,6.4,47,0.00,,BKN250,0.00,VWS V14.01,2013-09-07 19:51:00,
2013-09-07 16:01:00,70.7,47.7,29.96,SSW,200,2.1,4.3,44,0.00,,BKN250,0.00,VWS V14.01,2013-09-07 20:01:00,
2013-09-07 16:11:00,70.8,46.6,29.96,SW,219,5.4,5.4,42,0.00,,CLR,0.00,VWS V14.01,2013-09-07 20:11:00,
2013-09-07 16:21:00,70.8,47.8,29.95,South,189,0.0,2.1,44,0.00,,CLR,0.00,VWS V14.01,2013-09-07 20:21:00,
2013-09-07 16:31:00,70.6,49.4,29.96,South,181,2.1,2.1,47,0.00,,CLR,0.00,VWS V14.01,2013-09-07 20:31:00,
2013-09-07 16:41:00,70.8,49.0,29.96,SE,131,0.0,2.1,46,0.00,,CLR,0.00,VWS V14.01,2013-09-07 20:41:00,
2013-09-07 16:51:00,72.0,45.7,29.95,SSE,154,2.1,4.3,39,0.00,,CLR,0.00,VWS V14.01,2013-09-07 20:51:00,
2013-09-07 17:01:00,72.0,48.3,29.95,SE,144,0.0,1.1,43,0.00,,CLR,0.00,VWS V14.01,2013-09-07 21:01:00,
2013-09-07 17:11:00,71.8,49.3,29.95,South,171,1.1,5.4,45,0.00,,SCT200,0.00,VWS V14.01,2013-09-07 21:11:00,
2013-09-07 17:21:00,71.7,51.0,29.95,SE,135,3.2,3.2,48,0.00,,SCT200,0.00,VWS V14.01,2013-09-07 21:21:00,
2013-09-07 17:31:00,71.5,50.2,29.95,SE,138,0.0,3.2,47,0.00,,SCT200,0.00,VWS V14.01,2013-09-07 21:31:00,
2013-09-07 17:41:00,70.6,50.5,29.94,ESE,118,2.1,4.3,49,0.00,,SCT200,0.00,VWS V14.01,2013-09-07 21:41:00,
2013-09-07 17:51:00,69.0,50.1,29.94,SW,218,0.0,3.2,51,0.00,,SCT200,0.00,VWS V14.01,2013-09-07 21:51:00,
2013-09-07 18:01:00,68.1,51.8,29.94,SSW,193,0.0,2.1,56,0.00,,SCT200,0.00,VWS V14.01,2013-09-07 22:01:00,
2013-09-07 18:11:00,67.2,52.4,29.94,South,182,2.1,2.1,59,0.00,,BKN200,0.00,VWS V14.01,2013-09-07 22:11:00,
2013-09-07 18:21:00,66.7,53.7,29.94,SSW,207,0.0,0.0,63,0.00,,BKN200,0.00,VWS V14.01,2013-09-07 22:21:00,
2013-09-07 18:31:00,66.3,54.2,29.94,SSW,203,0.0,0.0,65,0.00,,BKN200,0.00,VWS V14.01,2013-09-07 22:31:00,
2013-09-07 18:41:00,65.9,54.2,29.93,South,185,1.1,1.1,66,0.00,,BKN200,0.00,VWS V14.01,2013-09-07 22:41:00,
2013-09-07 18:51:00,65.6,54.8,29.93,SE,126,0.0,0.0,68,0.00,,BKN200,0.00,VWS V14.01,2013-09-07 22:51:00,
2013-09-07 19:01:00,65.3,55.3,29.93,ENE,74,0.0,0.0,70,0.00,,BKN200,0.00,VWS V14.01,2013-09-07 23:01:00,
2013-09-07 19:11:00,64.7,55.5,29.93,NE,42,0.0,2.1,72,0.00,,BKN200,0.00,VWS V14.01,2013-09-07 23:11:00,
2013-09-07 19:21:00,64.5,55.3,29.93,ENE,63,0.0,4.3,72,0.00,,BKN200,0.00,VWS V14.01,2013-09-07 23:21:00,
2013-09-07 19:31:00,64.7,55.5,29.94,ENE,64,0.0,2.1,72,0.00,,BKN200,0.00,VWS V14.01,2013-09-07 23:31:00,
2013-09-07 19:41:00,64.4,55.6,29.94,ENE,73,0.0,0.0,73,0.00,,BKN200,0.00,VWS V14.01,2013-09-07 23:41:00,
2013-09-07 19:51:00,64.3,55.5,29.94,ENE,75,0.0,2.1,73,0.00,,BKN200,0.00,VWS V14.01,2013-09-07 23:51:00,
2013-09-07 20:01:00,64.4,55.6,29.94,ENE,72,1.1,1.1,73,0.00,,BKN200,0.00,VWS V14.01,2013-09-08 00:01:00,
2013-09-07 20:11:00,64.0,55.6,29.94,ENE,62,2.1,3.2,74,0.00,,OVC200,0.00,VWS V14.01,2013-09-08 00:11:00,
2013-09-07 20:21:00,64.0,55.6,29.94,ENE,66,0.0,2.1,74,0.00,,OVC200,0.00,VWS V14.01,2013-09-08 00:21:00,
2013-09-07 20:31:00,64.0,55.9,29.94,ENE,72,5.4,5.4,75,0.00,,OVC200,0.00,VWS V14.01,2013-09-08 00:31:00,
2013-09-07 20:41:00,63.8,55.7,29.94,ENE,61,0.0,3.2,75,0.00,,OVC200,0.00,VWS V14.01,2013-09-08 00:41:00,
2013-09-07 20:51:00,63.8,56.1,29.94,ENE,63,0.0,2.1,76,0.00,,OVC200,0.00,VWS V14.01,2013-09-08 00:51:00,
2013-09-07 21:01:00,63.7,56.0,29.94,ENE,62,0.0,0.0,76,0.00,,OVC200,0.00,VWS V14.01,2013-09-08 01:01:00,
2013-09-07 21:11:00,63.5,55.8,29.94,ENE,63,1.1,1.1,76,0.00,,BKN110,0.00,VWS V14.01,2013-09-08 01:11:00,
2013-09-07 21:21:00,63.5,56.5,29.94,ENE,66,0.0,0.0,78,0.00,,BKN110,0.00,VWS V14.01,2013-09-08 01:21:00,
2013-09-07 21:31:00,63.4,56.4,29.93,ENE,71,0.0,2.1,78,0.00,,BKN110,0.00,VWS V14.01,2013-09-08 01:31:00,
2013-09-07 21:41:00,63.2,56.6,29.93,ENE,71,0.0,2.1,79,0.00,,BKN110,0.00,VWS V14.01,2013-09-08 01:41:00,
2013-09-07 21:51:00,62.9,56.6,29.93,ENE,71,0.0,0.0,80,0.00,,BKN110,0.00,VWS V14.01,2013-09-08 01:51:00,
2013-09-07 22:01:00,62.7,56.5,29.93,SSW,192,0.0,0.0,80,0.00,,BKN110,0.00,VWS V14.01,2013-09-08 02:01:00,
2013-09-07 22:11:00,62.6,56.7,29.93,SSW,192,0.0,1.1,81,0.00,,FEW095,0.00,VWS V14.01,2013-09-08 02:11:00,
2013-09-07 22:21:00,62.5,56.6,29.93,SSW,192,0.0,0.0,81,0.00,,FEW095,0.00,VWS V14.01,2013-09-08 02:21:00,
2013-09-07 22:31:00,62.3,57.1,29.93,SSW,192,0.0,0.0,83,0.00,,FEW095,0.00,VWS V14.01,2013-09-08 02:31:00,
2013-09-07 22:41:00,62.3,57.4,29.92,SSW,192,0.0,2.1,84,0.00,,FEW095,0.00,VWS V14.01,2013-09-08 02:41:00,
2013-09-07 22:51:00,62.5,57.3,29.92,SSW,192,0.0,0.0,83,0.00,,FEW095,0.00,VWS V14.01,2013-09-08 02:51:00,
2013-09-07 23:01:00,62.5,57.6,29.92,SSW,192,0.0,1.1,84,0.00,,FEW095,0.00,VWS V14.01,2013-09-08 03:01:00,
2013-09-07 23:11:00,62.3,57.4,29.92,SSW,192,1.1,1.1,84,0.00,,BKN100,0.00,VWS V14.01,2013-09-08 03:11:00,
2013-09-07 23:21:00,62.3,57.4,29.92,SSW,192,0.0,0.0,84,0.00,,BKN100,0.00,VWS V14.01,2013-09-08 03:21:00,
2013-09-07 23:31:00,62.1,57.5,29.91,SSW,192,0.0,0.0,85,0.00,,BKN100,0.00,VWS V14.01,2013-09-08 03:31:00,
2013-09-07 23:41:00,62.0,57.5,29.91,SSW,192,0.0,0.0,85,0.00,,BKN100,0.00,VWS V14.01,2013-09-08 03:41:00,
2013-09-07 23:51:00,61.8,57.6,29.91,SSW,192,0.0,0.0,86,0.00,,BKN100,0.00,VWS V14.01,2013-09-08 03:51:00,